createdAt,value
2022-08-26T00:02:29.706Z,44.17
2022-08-26T00:07:22.808Z,44.24
2022-08-26T00:12:17.788Z,44.64
2022-08-26T00:17:11.624Z,43.99
2022-08-26T00:22:06.262Z,43.62
2022-08-26T00:27:00.571Z,43.97
2022-08-26T00:31:55.565Z,43.48
2022-08-26T00:36:51.864Z,43.42
2022-08-26T00:41:46.133Z,43.26
2022-08-26T00:46:45.031Z,43.27
2022-08-26T00:51:54.336Z,43.59
2022-08-26T00:57:16.359Z,43.02
2022-08-26T01:02:49.171Z,43.03
2022-08-26T01:08:03.680Z,43.51
2022-08-26T01:13:06.343Z,43.21
2022-08-26T01:18:01.460Z,43.03
2022-08-26T01:23:06.897Z,43.53
2022-08-26T01:28:24.692Z,43.14
2022-08-26T01:33:24.276Z,43.55
2022-08-26T01:38:18.841Z,43.23
2022-08-26T01:43:52.052Z,43.43
2022-08-26T01:48:46.807Z,43.01
2022-08-26T01:53:43.539Z,43.44
2022-08-26T01:58:52.247Z,43.34
2022-08-26T02:04:17.479Z,42.96
2022-08-26T02:09:12.245Z,43.26
2022-08-26T02:14:12.176Z,43.05
2022-08-26T02:19:07.503Z,43.06
2022-08-26T02:24:16.167Z,42.97
2022-08-26T02:29:18.010Z,43.40
2022-08-26T02:34:19.946Z,43.01
2022-08-26T02:39:19.523Z,42.90
2022-08-26T02:44:15.643Z,43.12
2022-08-26T02:49:09.274Z,42.59
2022-08-26T02:54:03.071Z,43.15
2022-08-26T02:58:58.579Z,42.67
2022-08-26T03:03:52.187Z,42.66
2022-08-26T03:08:45.528Z,42.68
2022-08-26T03:13:40.195Z,42.94
2022-08-26T03:18:33.762Z,43.35
2022-08-26T03:23:27.603Z,43.79
2022-08-26T03:28:22.998Z,43.36
2022-08-26T03:33:21.149Z,43.67
2022-08-26T03:38:19.577Z,43.57
2022-08-26T03:43:15.319Z,43.55
2022-08-26T03:48:09.297Z,44.01
2022-08-26T03:53:03.350Z,43.83
2022-08-26T03:57:57.521Z,43.91
2022-08-26T04:02:53.468Z,43.86
2022-08-26T04:07:48.768Z,44.02
2022-08-26T04:12:44.665Z,43.84
2022-08-26T04:17:38.447Z,43.63
2022-08-26T04:22:32.019Z,43.80
2022-08-26T04:27:26.456Z,44.13
2022-08-26T04:32:20.149Z,43.70
2022-08-26T04:37:13.415Z,43.98
2022-08-26T04:42:08.127Z,44.29
2022-08-26T04:47:03.193Z,43.92
2022-08-26T04:51:56.311Z,44.00
2022-08-26T04:56:51.571Z,44.00
2022-08-26T05:01:50.409Z,43.99
2022-08-26T05:06:44.156Z,43.97
2022-08-26T05:11:39.189Z,43.81
2022-08-26T05:16:33.784Z,43.68
2022-08-26T05:21:29.813Z,43.79
2022-08-26T05:26:26.098Z,43.55
2022-08-26T05:31:22.844Z,43.39
2022-08-26T05:36:19.617Z,43.42
2022-08-26T05:41:18.745Z,43.58
2022-08-26T05:46:12.392Z,43.62
2022-08-26T05:51:10.743Z,43.47
2022-08-26T05:56:06.200Z,44.01
2022-08-26T06:01:04.155Z,44.04
2022-08-26T06:05:58.004Z,44.38
2022-08-26T06:10:56.788Z,43.97
2022-08-26T06:15:52.198Z,44.21
2022-08-26T06:20:54.609Z,44.29
2022-08-26T06:25:53.332Z,44.26
2022-08-26T06:30:47.730Z,44.51
2022-08-26T06:35:42.614Z,44.38
2022-08-26T06:40:43.159Z,44.05
2022-08-26T06:45:36.860Z,44.29
2022-08-26T06:50:31.170Z,44.34
2022-08-26T06:55:27.099Z,43.82
2022-08-26T07:00:22.108Z,43.71
2022-08-26T07:05:16.265Z,43.89
2022-08-26T07:10:10.914Z,44.08
2022-08-26T07:15:04.173Z,44.07
2022-08-26T07:19:58.421Z,43.52
2022-08-26T07:24:54.107Z,43.98
2022-08-26T07:29:47.928Z,43.62
2022-08-26T07:34:43.097Z,43.64
2022-08-26T07:39:37.313Z,43.57
2022-08-26T07:44:31.476Z,43.69
2022-08-26T07:49:28.085Z,43.84
2022-08-26T07:54:27.123Z,43.60
2022-08-26T07:59:20.500Z,43.43
2022-08-26T08:04:19.430Z,43.77
2022-08-26T08:09:19.189Z,43.34
2022-08-26T08:14:13.721Z,43.78
2022-08-26T08:19:07.701Z,43.26
2022-08-26T08:24:02.264Z,43.63
2022-08-26T08:28:58.040Z,43.51
2022-08-26T08:33:51.258Z,43.72
2022-08-26T08:38:45.335Z,43.31
2022-08-26T08:43:47.160Z,43.27
2022-08-26T08:48:47.240Z,43.70
2022-08-26T08:53:45.364Z,43.62
2022-08-26T08:59:03.227Z,43.57
2022-08-26T09:04:30.836Z,43.09
2022-08-26T09:09:31.801Z,43.68
2022-08-26T09:14:25.141Z,43.22
2022-08-26T09:19:33.636Z,43.28
2022-08-26T09:24:29.761Z,43.30
2022-08-26T09:29:27.768Z,43.17
2022-08-26T09:34:28.563Z,43.59
2022-08-26T09:39:39.996Z,43.42
2022-08-26T09:44:36.469Z,43.19
2022-08-26T09:49:38.255Z,43.16
2022-08-26T09:54:32.463Z,43.44
2022-08-26T09:59:31.767Z,43.18
2022-08-26T10:04:31.183Z,43.17
2022-08-26T10:09:30.549Z,43.22
2022-08-26T10:14:28.840Z,43.20
2022-08-26T10:19:55.536Z,43.10
2022-08-26T10:24:54.947Z,43.07
2022-08-26T10:29:52.757Z,43.34
2022-08-26T10:34:45.749Z,43.27
2022-08-26T10:40:16.806Z,43.21
2022-08-26T10:45:20.574Z,43.51
2022-08-26T10:50:15.415Z,43.50
2022-08-26T10:55:27.477Z,43.57
2022-08-26T11:00:47.428Z,43.49
2022-08-26T11:05:41.399Z,43.50
2022-08-26T11:10:43.547Z,43.29
2022-08-26T11:15:39.987Z,43.39
2022-08-26T11:20:48.373Z,42.99
2022-08-26T11:25:57.468Z,43.26
2022-08-26T11:30:58.073Z,43.06
2022-08-26T11:35:53.620Z,42.89
2022-08-26T11:40:57.780Z,43.02
2022-08-26T11:46:05.151Z,43.23
2022-08-26T11:51:05.590Z,43.23
2022-08-26T11:55:59.259Z,43.19
2022-08-26T12:00:58.937Z,42.83
2022-08-26T12:05:54.520Z,42.74
2022-08-26T12:11:08.921Z,43.14
2022-08-26T12:16:04.926Z,43.14
2022-08-26T12:21:20.239Z,42.86
2022-08-26T12:26:28.348Z,42.83
2022-08-26T12:31:28.759Z,43.01
2022-08-26T12:36:29.787Z,43.21
2022-08-26T12:41:41.109Z,43.09
2022-08-26T12:46:34.836Z,43.09
2022-08-26T12:51:31.265Z,43.30
2022-08-26T12:56:41.027Z,43.10
2022-08-26T13:01:41.310Z,43.24
2022-08-26T13:06:35.799Z,43.35
2022-08-26T13:11:40.827Z,42.84
2022-08-26T13:16:34.525Z,42.74
2022-08-26T13:21:37.412Z,43.33
2022-08-26T13:26:31.318Z,42.85
2022-08-26T13:31:26.968Z,43.34
2022-08-26T13:36:20.956Z,43.26
2022-08-26T13:41:14.677Z,43.19
2022-08-26T13:46:09.491Z,43.17
2022-08-26T13:51:03.606Z,43.14
2022-08-26T13:56:02.664Z,43.28
2022-08-26T14:01:02.798Z,43.07
2022-08-26T14:05:56.694Z,43.03
2022-08-26T14:10:50.734Z,43.24
2022-08-26T14:15:44.348Z,42.97
2022-08-26T14:20:39.168Z,43.39
2022-08-26T14:25:34.389Z,43.44
2022-08-26T14:30:29.344Z,43.08
2022-08-26T14:35:27.231Z,43.27
2022-08-26T14:40:23.286Z,42.83
2022-08-26T14:45:24.470Z,42.77
2022-08-26T14:50:23.605Z,43.27
2022-08-26T14:55:18.128Z,43.23
2022-08-26T15:00:11.927Z,43.18
2022-08-26T15:05:08.314Z,42.90
2022-08-26T15:10:02.586Z,43.30
2022-08-26T15:14:56.955Z,43.11
2022-08-26T15:19:51.260Z,43.18
2022-08-26T15:24:45.747Z,43.24
2022-08-26T15:29:39.897Z,43.29
2022-08-26T15:34:34.260Z,43.32
2022-08-26T15:39:26.971Z,43.42
2022-08-26T15:44:19.937Z,43.23
2022-08-26T15:49:18.549Z,43.55
2022-08-26T15:54:12.216Z,43.50
2022-08-26T15:59:08.564Z,43.57
2022-08-26T16:04:01.768Z,43.07
2022-08-26T16:08:57.465Z,43.29
2022-08-26T16:13:50.912Z,43.06
2022-08-26T16:18:45.400Z,43.33
2022-08-26T16:23:38.995Z,43.23
2022-08-26T16:28:33.719Z,43.23
2022-08-26T16:33:29.471Z,43.50
2022-08-26T16:38:23.513Z,43.57
2022-08-26T16:43:16.840Z,43.22
2022-08-26T16:48:11.955Z,43.35
2022-08-26T16:53:05.727Z,43.34
2022-08-26T16:58:00.246Z,43.33
2022-08-26T17:02:55.473Z,42.97
2022-08-26T17:07:48.179Z,43.08
2022-08-26T17:12:41.877Z,43.20
2022-08-26T17:17:35.919Z,43.08
2022-08-26T17:22:34.129Z,43.04
2022-08-26T17:27:28.662Z,43.20
2022-08-26T17:32:21.467Z,43.23
2022-08-26T17:37:14.873Z,43.55
2022-08-26T17:42:08.417Z,43.32
2022-08-26T17:47:02.365Z,43.32
2022-08-26T17:52:03.445Z,43.47
2022-08-26T17:56:57.819Z,43.72
2022-08-26T18:02:13.655Z,44.41
2022-08-26T18:07:06.293Z,43.93
2022-08-26T18:12:01.395Z,44.08
2022-08-26T18:16:55.484Z,44.23
2022-08-26T18:21:49.174Z,44.29
2022-08-26T18:26:48.545Z,43.75
2022-08-26T18:31:42.615Z,43.93
2022-08-26T18:36:38.131Z,44.23
2022-08-26T18:41:34.203Z,43.63
2022-08-26T18:46:28.697Z,44.37
2022-08-26T18:51:27.013Z,43.68
2022-08-26T18:56:20.088Z,43.87
2022-08-26T19:01:14.241Z,44.15
2022-08-26T19:06:09.715Z,45.02
2022-08-26T19:11:04.371Z,44.52
2022-08-26T19:16:00.566Z,45.24
2022-08-26T19:20:58.010Z,44.94
2022-08-26T19:25:53.115Z,44.85
2022-08-26T19:30:51.309Z,44.83
2022-08-26T19:35:46.903Z,44.60
2022-08-26T19:40:41.143Z,44.18
2022-08-26T19:45:36.573Z,44.36
2022-08-26T19:50:32.598Z,44.68
2022-08-26T19:55:27.271Z,44.71
2022-08-26T20:00:24.857Z,44.42
2022-08-26T20:05:21.619Z,43.99
2022-08-26T20:10:16.820Z,44.16
2022-08-26T20:15:13.527Z,44.20
2022-08-26T20:20:32.876Z,44.11
2022-08-26T20:25:27.896Z,44.14
2022-08-26T20:30:23.029Z,44.23
2022-08-26T20:35:17.366Z,44.05
2022-08-26T20:40:17.900Z,44.47
2022-08-26T20:45:13.475Z,44.22
2022-08-26T20:50:08.918Z,44.37
2022-08-26T20:55:01.169Z,44.42
2022-08-26T20:59:54.807Z,44.23
2022-08-26T21:04:49.410Z,44.54
2022-08-26T21:09:46.884Z,44.22
2022-08-26T21:14:40.843Z,44.37
2022-08-26T21:19:34.751Z,44.58
2022-08-26T21:24:29.052Z,44.46
2022-08-26T21:29:22.860Z,44.08
2022-08-26T21:34:19.638Z,44.18
2022-08-26T21:39:13.270Z,44.36
2022-08-26T21:44:06.266Z,44.52
2022-08-26T21:49:02.171Z,44.53
2022-08-26T21:53:57.589Z,44.45
2022-08-26T21:58:52.574Z,44.69
2022-08-26T22:03:47.922Z,44.27
2022-08-26T22:08:41.878Z,44.30
2022-08-26T22:13:38.583Z,44.58
2022-08-26T22:18:33.301Z,44.41
2022-08-26T22:23:30.136Z,44.13
2022-08-26T22:28:23.316Z,44.79
2022-08-26T22:33:18.295Z,44.13
2022-08-26T22:38:12.596Z,44.57
2022-08-26T22:43:06.640Z,44.33
2022-08-26T22:48:07.671Z,44.51
2022-08-26T22:53:01.499Z,44.42
2022-08-26T22:57:54.965Z,44.59
2022-08-26T23:02:49.139Z,44.51
2022-08-26T23:07:47.060Z,44.47
2022-08-26T23:12:41.651Z,44.67
2022-08-26T23:17:36.183Z,44.47
2022-08-26T23:22:30.148Z,44.46
2022-08-26T23:27:23.508Z,44.50
2022-08-26T23:32:17.562Z,44.65
2022-08-26T23:37:11.702Z,44.86
2022-08-26T23:42:06.968Z,44.84
2022-08-26T23:47:01.332Z,44.92
2022-08-26T23:52:13.114Z,44.85
2022-08-26T23:57:07.732Z,45.42
